KMGR/MGR METAR and TAF weather

Enter ICAO airport designator
Station Type Date Time Source
KMGR METAR 2020/07/03 13:55 UTC NOAA

KMGR 031355Z AUTO 00000KT 10SM CLR 29/23 A2996 RMK AO2


Station Type Date Time Source
KMGR Decoded METAR 2020/07/03 13:55 UTC NOAA

Moultrie, Moultrie Municipal Airport, GA, United States (KMGR) 31-05-05N 083-48-11W
Jul 03, 2020 - 09:55 AM EDT / 2020.07.03 1355 UTC
Wind: Calm:0
Visibility: 10 mile(s):0
Sky conditions: clear
Temperature: 84 F (29 C)
Dew Point: 73 F (23 C)
Relative Humidity: 70%
Pressure (altimeter): 29.96 in. Hg (1014 hPa)
ob: KMGR 031355Z AUTO 00000KT 10SM CLR 29/23 A2996 RMK AO2
cycle: 14

Station Type Date Time Source
KMGR TAF UTC NOAA

Error!

Example: see airport list